createdAt,value
2023-04-18T00:03:04.087Z,9.09
2023-04-18T00:07:57.514Z,9.09
2023-04-18T00:12:50.210Z,9.06
2023-04-18T00:17:43.000Z,9.02
2023-04-18T00:22:35.837Z,8.99
2023-04-18T00:27:28.514Z,8.98
2023-04-18T00:32:21.674Z,8.96
2023-04-18T00:37:14.437Z,8.94
2023-04-18T00:42:07.980Z,8.91
2023-04-18T00:47:00.681Z,8.87
2023-04-18T00:51:53.677Z,8.85
2023-04-18T00:56:46.937Z,8.85
2023-04-18T01:01:41.872Z,8.84
2023-04-18T01:06:34.772Z,8.81
2023-04-18T01:11:27.466Z,8.80
2023-04-18T01:16:20.209Z,8.79
2023-04-18T01:21:15.629Z,8.75
2023-04-18T01:26:08.750Z,8.75
2023-04-18T01:31:01.524Z,8.74
2023-04-18T01:35:54.302Z,8.76
2023-04-18T01:40:47.722Z,8.75
2023-04-18T01:45:41.014Z,8.76
2023-04-18T01:50:34.810Z,8.74
2023-04-18T01:55:27.512Z,8.73
2023-04-18T02:00:21.157Z,8.72
2023-04-18T02:05:13.830Z,8.69
2023-04-18T02:10:06.770Z,8.69
2023-04-18T02:14:59.534Z,8.68
2023-04-18T02:19:52.345Z,8.68
2023-04-18T02:24:45.091Z,8.69
2023-04-18T02:29:37.817Z,8.68
2023-04-18T02:34:30.518Z,8.67
2023-04-18T02:39:23.257Z,8.67
2023-04-18T02:44:17.162Z,8.67
2023-04-18T02:49:10.232Z,8.67
2023-04-18T02:54:03.072Z,8.67
2023-04-18T02:59:04.332Z,8.68
2023-04-18T03:04:13.280Z,8.68
2023-04-18T03:09:12.546Z,8.68
2023-04-18T03:14:09.711Z,8.68
2023-04-18T03:19:08.691Z,8.67
2023-04-18T03:24:01.766Z,8.65
2023-04-18T03:28:54.627Z,8.64
2023-04-18T03:33:47.577Z,8.64
2023-04-18T03:38:41.090Z,8.63
2023-04-18T03:43:34.190Z,8.63
2023-04-18T03:48:27.269Z,8.62
2023-04-18T03:53:21.170Z,8.61
2023-04-18T03:58:14.298Z,8.59
2023-04-18T04:03:08.118Z,8.59
2023-04-18T04:08:01.063Z,8.60
2023-04-18T04:12:53.788Z,8.60
2023-04-18T04:17:47.168Z,8.63
2023-04-18T04:22:40.807Z,8.68
2023-04-18T04:27:36.980Z,8.72
2023-04-18T04:32:31.110Z,8.79
2023-04-18T04:37:25.240Z,8.88
2023-04-18T04:42:28.708Z,9.02
2023-04-18T04:47:32.521Z,9.18
2023-04-18T04:52:25.379Z,9.24
2023-04-18T04:57:18.938Z,9.29
2023-04-18T05:02:11.771Z,9.36
2023-04-18T05:07:04.793Z,9.43
2023-04-18T05:11:57.865Z,9.44
2023-04-18T05:16:50.560Z,9.45
2023-04-18T05:21:43.662Z,9.45
2023-04-18T05:26:36.383Z,9.45
2023-04-18T05:31:33.442Z,9.45
2023-04-18T05:36:28.842Z,9.49
2023-04-18T05:41:21.550Z,9.60
2023-04-18T05:46:14.803Z,9.70
2023-04-18T05:51:07.812Z,9.79
2023-04-18T05:56:01.489Z,9.88
2023-04-18T06:00:54.213Z,9.97
2023-04-18T06:05:47.045Z,10.04
2023-04-18T06:10:39.796Z,10.08
2023-04-18T06:15:32.702Z,10.10
2023-04-18T06:20:25.567Z,10.08
2023-04-18T06:25:18.717Z,10.00
2023-04-18T06:30:11.712Z,9.89
2023-04-18T06:35:04.447Z,9.82
2023-04-18T06:39:57.494Z,9.79
2023-04-18T06:44:50.225Z,9.84
2023-04-18T06:49:43.059Z,9.85
2023-04-18T06:54:36.481Z,9.88
2023-04-18T06:59:29.241Z,9.93
2023-04-18T07:04:22.214Z,10.03
2023-04-18T07:09:15.301Z,10.11
2023-04-18T07:14:08.113Z,10.23
2023-04-18T07:19:01.055Z,10.38
2023-04-18T07:23:54.022Z,10.57
2023-04-18T07:28:47.039Z,10.79
2023-04-18T07:33:40.204Z,10.92
2023-04-18T07:38:34.941Z,11.08
2023-04-18T07:43:27.642Z,11.19
2023-04-18T07:48:22.283Z,11.37
2023-04-18T07:53:15.855Z,11.49
2023-04-18T07:58:08.554Z,11.54
2023-04-18T08:03:01.507Z,11.69
2023-04-18T08:07:54.422Z,11.92
2023-04-18T08:12:47.342Z,12.13
2023-04-18T08:17:42.685Z,12.32
2023-04-18T08:22:39.299Z,12.54
2023-04-18T08:27:36.882Z,12.84
2023-04-18T08:32:29.555Z,13.22
2023-04-18T08:37:22.275Z,14.02
2023-04-18T08:42:17.420Z,14.69
2023-04-18T08:47:10.941Z,15.58
2023-04-18T08:52:04.185Z,17.20
2023-04-18T08:57:08.081Z,18.05
2023-04-18T09:02:01.751Z,19.04
2023-04-18T09:06:55.415Z,19.68
2023-04-18T09:11:48.266Z,19.92
2023-04-18T09:16:48.216Z,20.56
2023-04-18T09:21:42.315Z,20.65
2023-04-18T09:26:36.485Z,20.79
2023-04-18T09:31:30.550Z,20.59
2023-04-18T09:36:25.054Z,20.70
2023-04-18T09:41:20.830Z,21.97
2023-04-18T09:46:14.996Z,21.96
2023-04-18T09:51:08.741Z,23.32
2023-04-18T09:56:02.476Z,24.78
2023-04-18T10:00:55.688Z,23.25
2023-04-18T10:05:48.737Z,21.70
2023-04-18T10:10:42.514Z,20.68
2023-04-18T10:15:35.995Z,20.58
2023-04-18T10:20:30.312Z,19.91
2023-04-18T10:25:35.130Z,21.24
2023-04-18T10:30:40.367Z,21.58
2023-04-18T10:35:36.081Z,20.68
2023-04-18T10:40:35.973Z,20.51
2023-04-18T10:45:31.370Z,21.26
2023-04-18T10:50:24.118Z,21.05
2023-04-18T10:55:22.156Z,21.01
2023-04-18T11:00:18.359Z,21.26
2023-04-18T11:05:11.131Z,20.62
2023-04-18T11:10:04.374Z,19.90
2023-04-18T11:14:57.182Z,19.36
2023-04-18T11:19:50.196Z,18.86
2023-04-18T11:24:43.114Z,18.67
2023-04-18T11:29:35.851Z,18.55
2023-04-18T11:34:32.006Z,18.55
2023-04-18T11:39:25.097Z,18.87
2023-04-18T11:44:27.912Z,18.79
2023-04-18T11:49:28.098Z,18.32
2023-04-18T11:54:37.096Z,18.27
2023-04-18T11:59:29.832Z,18.40
2023-04-18T12:04:23.024Z,18.52
2023-04-18T12:09:19.714Z,18.38
2023-04-18T12:14:22.471Z,17.94
2023-04-18T12:19:15.615Z,17.65
2023-04-18T12:24:16.781Z,17.45
2023-04-18T12:29:10.177Z,17.08
2023-04-18T12:34:03.349Z,16.67
2023-04-18T12:38:56.169Z,16.43
2023-04-18T12:43:49.203Z,16.32
2023-04-18T12:48:41.911Z,16.35
2023-04-18T12:53:34.847Z,16.52
2023-04-18T12:58:27.690Z,16.68
2023-04-18T13:03:20.545Z,16.91
2023-04-18T13:08:17.612Z,17.09
2023-04-18T13:13:10.985Z,17.32
2023-04-18T13:18:06.353Z,17.50
2023-04-18T13:23:00.053Z,17.72
2023-04-18T13:27:52.794Z,17.86
2023-04-18T13:32:46.415Z,17.81
2023-04-18T13:37:39.573Z,17.68
2023-04-18T13:47:43.006Z,17.68
2023-04-18T13:52:36.516Z,17.53
2023-04-18T13:57:32.336Z,17.40
2023-04-18T14:02:25.291Z,17.24
2023-04-18T14:07:18.195Z,17.09
2023-04-18T14:17:42.787Z,17.03
2023-04-18T14:22:36.970Z,17.05
2023-04-18T14:27:29.684Z,16.91
2023-04-18T14:32:22.806Z,16.76
2023-04-18T14:37:17.558Z,16.68
2023-04-18T14:42:10.570Z,16.72
2023-04-18T14:47:03.869Z,16.72
2023-04-18T14:51:56.735Z,16.67
2023-04-18T14:56:49.507Z,16.56
2023-04-18T15:01:42.452Z,16.48
2023-04-18T15:06:35.215Z,16.38
2023-04-18T15:11:28.384Z,16.32
2023-04-18T15:16:21.324Z,16.29
2023-04-18T15:21:14.316Z,16.24
2023-04-18T15:26:07.049Z,16.17
2023-04-18T15:30:59.996Z,16.09
2023-04-18T15:35:52.712Z,16.01
2023-04-18T15:40:45.808Z,15.93
2023-04-18T15:45:39.022Z,15.88
2023-04-18T15:50:33.645Z,15.84
2023-04-18T15:55:26.629Z,15.75
2023-04-18T16:00:20.202Z,15.68
2023-04-18T16:05:13.667Z,15.61
2023-04-18T16:10:08.692Z,15.53
2023-04-18T16:15:01.462Z,15.47
2023-04-18T16:19:57.147Z,15.44
2023-04-18T16:24:49.930Z,15.38
2023-04-18T16:29:44.533Z,15.35
2023-04-18T16:34:37.334Z,15.31
2023-04-18T16:39:30.829Z,15.29
2023-04-18T16:44:23.529Z,15.22
2023-04-18T16:49:16.674Z,15.15
2023-04-18T16:54:09.946Z,15.01
2023-04-18T16:59:04.061Z,14.84
2023-04-18T17:03:56.853Z,14.68
2023-04-18T17:08:50.202Z,14.52
2023-04-18T17:13:42.922Z,14.36
2023-04-18T17:18:35.701Z,14.23
2023-04-18T17:23:29.245Z,14.11
2023-04-18T17:28:23.775Z,13.92
2023-04-18T17:33:16.557Z,13.70
2023-04-18T17:38:10.632Z,13.49
2023-04-18T17:43:03.497Z,13.28
2023-04-18T17:47:57.686Z,13.08
2023-04-18T17:52:50.456Z,12.93
2023-04-18T17:57:43.136Z,12.79
2023-04-18T18:02:35.982Z,12.67
2023-04-18T18:07:28.960Z,12.55
2023-04-18T18:12:22.202Z,12.45
2023-04-18T18:17:14.862Z,12.37
2023-04-18T18:22:08.425Z,12.30
2023-04-18T18:27:02.021Z,12.21
2023-04-18T18:31:54.853Z,12.14
2023-04-18T18:36:47.602Z,12.07
2023-04-18T18:41:40.403Z,12.00
2023-04-18T18:46:34.090Z,11.97
2023-04-18T18:51:27.333Z,11.97
2023-04-18T18:56:20.066Z,11.99
2023-04-18T19:01:12.857Z,12.01
2023-04-18T19:06:07.392Z,12.05
2023-04-18T19:11:00.132Z,12.08
2023-04-18T19:15:52.970Z,12.13
2023-04-18T19:20:45.863Z,12.17
2023-04-18T19:25:39.855Z,12.20
2023-04-18T19:30:33.319Z,12.24
2023-04-18T19:35:26.520Z,12.27
2023-04-18T19:40:19.268Z,12.30
2023-04-18T19:45:13.768Z,12.32
2023-04-18T19:50:07.026Z,12.32
2023-04-18T19:54:59.736Z,12.32
2023-04-18T19:59:52.440Z,12.35
2023-04-18T20:04:45.333Z,12.37
2023-04-18T20:09:38.293Z,12.39
2023-04-18T20:14:31.012Z,12.44
2023-04-18T20:19:25.741Z,12.44
2023-04-18T20:24:21.145Z,12.43
2023-04-18T20:29:14.203Z,12.40
2023-04-18T20:34:08.030Z,12.38
2023-04-18T20:39:02.461Z,12.37
2023-04-18T20:43:55.145Z,12.35
2023-04-18T20:48:47.901Z,12.32
2023-04-18T20:53:40.714Z,12.29
2023-04-18T20:58:33.428Z,12.26
2023-04-18T21:03:26.248Z,12.22
2023-04-18T21:08:19.439Z,12.18
2023-04-18T21:13:12.766Z,12.15
2023-04-18T21:18:05.558Z,12.12
2023-04-18T21:22:58.974Z,12.09
2023-04-18T21:27:52.579Z,12.05
2023-04-18T21:32:45.864Z,12.01
2023-04-18T21:37:38.890Z,11.97
2023-04-18T21:42:31.621Z,11.92
2023-04-18T21:47:25.957Z,11.89
2023-04-18T21:52:18.702Z,11.86
2023-04-18T21:57:11.418Z,11.79
2023-04-18T22:02:05.032Z,11.73
2023-04-18T22:06:57.998Z,11.69
2023-04-18T22:11:51.708Z,11.61
2023-04-18T22:16:45.102Z,11.56
2023-04-18T22:21:37.916Z,11.51
2023-04-18T22:26:30.611Z,11.46
2023-04-18T22:31:23.466Z,11.41
2023-04-18T22:36:17.116Z,11.35
2023-04-18T22:41:09.987Z,11.27
2023-04-18T22:46:02.793Z,11.19
2023-04-18T22:50:55.617Z,11.12
2023-04-18T22:55:48.309Z,11.07
2023-04-18T23:00:41.092Z,11.01
2023-04-18T23:05:34.463Z,10.95
2023-04-18T23:10:27.275Z,10.89
2023-04-18T23:15:22.937Z,10.86
2023-04-18T23:20:16.548Z,10.82
2023-04-18T23:25:09.432Z,10.78
2023-04-18T23:30:03.329Z,10.76
2023-04-18T23:34:56.058Z,10.73
2023-04-18T23:39:49.600Z,10.68
2023-04-18T23:44:42.334Z,10.63
2023-04-18T23:49:35.159Z,10.57
2023-04-18T23:54:28.094Z,10.52
2023-04-18T23:59:20.814Z,10.47
